createdAt,value
2019-04-27T00:03:06.196Z,22.70
2019-04-27T00:08:35.187Z,22.70
2019-04-27T00:13:40.731Z,22.70
2019-04-27T00:19:09.067Z,22.70
2019-04-27T00:24:16.420Z,22.70
2019-04-27T00:29:23.616Z,22.70
2019-04-27T00:34:30.179Z,22.60
2019-04-27T00:40:03.650Z,22.70
2019-04-27T00:45:09.630Z,22.60
2019-04-27T00:50:15.429Z,22.60
2019-04-27T00:55:21.180Z,22.60
2019-04-27T01:00:45.610Z,22.60
2019-04-27T01:05:53.046Z,22.60
2019-04-27T01:10:58.621Z,22.60
2019-04-27T01:16:04.790Z,22.60
2019-04-27T01:21:11.670Z,22.60
2019-04-27T01:26:36.652Z,22.60
2019-04-27T01:31:42.291Z,22.60
2019-04-27T01:36:49.270Z,22.50
2019-04-27T01:41:55.271Z,22.60
2019-04-27T01:47:00.862Z,22.60
2019-04-27T01:52:06.783Z,22.50
2019-04-27T01:57:12.674Z,22.50
2019-04-27T02:02:29.188Z,22.50
2019-04-27T02:07:34.802Z,22.50
2019-04-27T02:12:40.442Z,22.50
2019-04-27T02:17:46.283Z,22.50
2019-04-27T02:22:52.082Z,22.50
2019-04-27T02:28:02.897Z,22.50
2019-04-27T02:33:31.108Z,22.50
2019-04-27T02:38:37.068Z,22.50
2019-04-27T02:43:50.695Z,22.50
2019-04-27T02:49:00.500Z,22.50
2019-04-27T02:54:04.224Z,22.50
2019-04-27T02:59:11.994Z,22.50
2019-04-27T03:04:17.382Z,22.40
2019-04-27T03:09:23.345Z,22.40
2019-04-27T03:14:56.717Z,22.40
2019-04-27T03:20:11.149Z,22.50
2019-04-27T03:25:35.473Z,22.40
2019-04-27T03:30:43.336Z,22.40
2019-04-27T03:35:52.519Z,22.40
2019-04-27T03:40:56.776Z,22.40
2019-04-27T03:46:02.594Z,22.40
2019-04-27T03:51:16.053Z,22.40
2019-04-27T03:56:50.811Z,22.40
2019-04-27T04:01:59.040Z,22.40
2019-04-27T04:07:16.103Z,22.40
2019-04-27T04:12:30.447Z,22.30
2019-04-27T04:17:36.118Z,22.30
2019-04-27T04:22:41.963Z,22.40
2019-04-27T04:27:50.443Z,22.40
2019-04-27T04:32:55.283Z,22.30
2019-04-27T04:38:01.798Z,22.30
2019-04-27T04:43:16.063Z,22.30
2019-04-27T04:48:22.174Z,22.30
2019-04-27T04:53:29.271Z,22.30
2019-04-27T04:58:35.543Z,22.30
2019-04-27T05:03:41.582Z,22.30
2019-04-27T05:08:49.268Z,22.30
2019-04-27T05:13:54.844Z,22.30
2019-04-27T05:19:00.763Z,22.30
2019-04-27T05:24:06.603Z,22.30
2019-04-27T05:29:12.292Z,22.30
2019-04-27T05:34:19.732Z,22.30
2019-04-27T05:39:26.373Z,22.30
2019-04-27T05:44:59.842Z,22.30
2019-04-27T05:50:18.296Z,22.30
2019-04-27T05:55:22.322Z,22.30
2019-04-27T06:00:29.322Z,22.30
2019-04-27T06:05:35.441Z,22.20
2019-04-27T06:10:41.202Z,22.20
2019-04-27T06:15:46.942Z,22.20
2019-04-27T06:20:55.685Z,22.30
2019-04-27T06:26:01.882Z,22.20
2019-04-27T06:31:08.802Z,22.20
2019-04-27T06:36:15.191Z,22.20
2019-04-27T06:41:20.932Z,22.20
2019-04-27T06:46:26.661Z,22.20
2019-04-27T06:51:32.962Z,22.20
2019-04-27T06:56:39.034Z,22.20
2019-04-27T07:01:45.131Z,22.20
2019-04-27T07:06:55.914Z,22.30
2019-04-27T07:11:59.247Z,22.20
2019-04-27T07:17:05.100Z,22.30
2019-04-27T07:22:11.431Z,22.30
2019-04-27T07:27:19.134Z,22.30
2019-04-27T07:32:24.732Z,22.30
2019-04-27T07:37:30.860Z,22.30
2019-04-27T07:42:36.960Z,22.30
2019-04-27T07:47:45.020Z,22.30
2019-04-27T07:52:50.832Z,22.30
2019-04-27T07:57:56.640Z,22.40
2019-04-27T08:03:02.403Z,22.30
2019-04-27T08:08:08.932Z,22.40
2019-04-27T08:13:15.062Z,22.40
2019-04-27T08:18:21.051Z,22.40
2019-04-27T08:23:26.809Z,22.40
2019-04-27T08:29:06.430Z,22.40
2019-04-27T08:34:31.528Z,22.50
2019-04-27T08:39:39.506Z,22.50
2019-04-27T08:44:45.111Z,22.50
2019-04-27T08:49:50.871Z,22.50
2019-04-27T08:54:56.600Z,22.50
2019-04-27T09:00:02.491Z,22.50
2019-04-27T09:05:09.516Z,22.50
2019-04-27T09:10:25.360Z,22.50
2019-04-27T09:15:35.632Z,22.50
2019-04-27T09:20:49.075Z,22.50
2019-04-27T09:25:55.041Z,22.50
2019-04-27T09:31:02.162Z,22.50
2019-04-27T09:36:07.934Z,22.50
2019-04-27T09:41:13.800Z,22.50
2019-04-27T09:46:19.900Z,22.50
2019-04-27T09:51:25.709Z,22.50
2019-04-27T09:56:31.460Z,22.50
2019-04-27T10:01:37.300Z,22.50
2019-04-27T10:06:43.180Z,22.50
2019-04-27T10:11:49.301Z,22.50
2019-04-27T10:16:55.785Z,22.50
2019-04-27T10:22:01.750Z,22.50
2019-04-27T10:27:08.138Z,22.50
2019-04-27T10:32:14.011Z,22.50
2019-04-27T10:37:20.050Z,22.50
2019-04-27T10:42:27.146Z,22.50
2019-04-27T10:47:33.070Z,22.50
2019-04-27T10:52:38.971Z,22.50
2019-04-27T10:57:44.930Z,22.50
2019-04-27T11:02:50.763Z,22.50
2019-04-27T11:07:57.580Z,22.50
2019-04-27T11:13:03.441Z,22.50
2019-04-27T11:18:09.472Z,22.60
2019-04-27T11:23:16.398Z,22.50
2019-04-27T11:28:22.561Z,22.50
2019-04-27T11:33:28.671Z,22.50
2019-04-27T11:38:36.485Z,22.60
2019-04-27T11:43:41.861Z,22.60
2019-04-27T11:48:47.932Z,22.60
2019-04-27T11:53:53.773Z,22.50
2019-04-27T11:58:59.601Z,22.50
2019-04-27T12:04:06.011Z,22.60
2019-04-27T12:09:12.153Z,22.50
2019-04-27T12:14:18.991Z,22.50
2019-04-27T12:19:26.856Z,22.50
2019-04-27T12:24:33.300Z,22.50
2019-04-27T12:29:56.852Z,22.60
2019-04-27T12:35:04.020Z,22.60
2019-04-27T12:40:10.280Z,22.50
2019-04-27T12:45:18.359Z,22.60
2019-04-27T12:50:26.088Z,22.60
2019-04-27T12:55:54.330Z,22.60
2019-04-27T13:01:22.071Z,22.60
2019-04-27T13:06:28.185Z,22.60
2019-04-27T13:11:34.461Z,22.60
2019-04-27T13:16:40.651Z,22.60
2019-04-27T13:21:46.930Z,22.60
2019-04-27T13:26:52.860Z,22.60
2019-04-27T13:31:58.531Z,22.60
2019-04-27T13:37:06.331Z,22.60
2019-04-27T13:42:12.721Z,22.70
2019-04-27T13:47:36.790Z,22.60
2019-04-27T13:52:42.530Z,22.60
2019-04-27T13:57:50.337Z,22.70
2019-04-27T14:02:56.061Z,22.70
2019-04-27T14:08:01.858Z,22.70
2019-04-27T14:13:08.780Z,22.70
2019-04-27T14:18:15.034Z,22.70
2019-04-27T14:23:22.512Z,22.70
2019-04-27T14:28:28.967Z,22.70
2019-04-27T14:33:35.664Z,22.70
2019-04-27T14:38:41.460Z,22.70
2019-04-27T14:43:48.274Z,22.70
2019-04-27T14:48:54.991Z,22.80
2019-04-27T14:54:00.861Z,22.90
2019-04-27T14:59:07.051Z,23.00
2019-04-27T15:04:13.002Z,23.00
2019-04-27T15:09:21.008Z,23.00
2019-04-27T15:14:27.372Z,23.00
2019-04-27T15:19:38.051Z,22.90
2019-04-27T15:24:48.913Z,22.90
2019-04-27T15:29:51.191Z,22.80
2019-04-27T15:35:13.652Z,22.90
2019-04-27T15:40:28.887Z,22.90
2019-04-27T15:45:34.811Z,23.00
2019-04-27T15:50:40.971Z,23.00
2019-04-27T15:55:47.371Z,23.10
2019-04-27T16:00:56.426Z,23.10
2019-04-27T16:06:03.292Z,23.20
2019-04-27T16:11:09.916Z,23.20
2019-04-27T16:16:16.191Z,23.20
2019-04-27T16:21:22.512Z,23.10
2019-04-27T16:33:06.316Z,23.00
2019-04-27T16:39:20.362Z,23.00
2019-04-27T16:44:26.775Z,23.00
2019-04-27T16:49:38.083Z,23.00
2019-04-27T17:08:49.675Z,22.90
2019-04-27T17:15:10.071Z,22.90
2019-04-27T17:20:17.796Z,22.90
2019-04-27T17:25:24.778Z,22.90
2019-04-27T17:30:37.869Z,22.90
2019-04-27T17:35:42.781Z,22.90
2019-04-27T17:40:51.763Z,22.90
2019-04-27T17:45:59.977Z,22.80
2019-04-27T17:51:08.905Z,22.80
2019-04-27T17:56:18.522Z,22.80
2019-04-27T18:01:30.120Z,22.80
2019-04-27T18:06:36.136Z,22.80
2019-04-27T18:11:43.978Z,22.80
2019-04-27T18:16:51.481Z,22.70
2019-04-27T18:22:03.804Z,22.80
2019-04-27T18:27:24.735Z,22.70
2019-04-27T18:32:32.357Z,22.70
2019-04-27T18:37:39.876Z,22.70
2019-04-27T18:42:47.735Z,22.70
2019-04-27T18:48:06.586Z,22.70
2019-04-27T19:06:08.524Z,22.70
2019-04-27T19:11:23.776Z,22.70
2019-04-27T19:16:32.116Z,22.60
2019-04-27T19:21:39.944Z,22.70
2019-04-27T19:34:23.236Z,22.70
2019-04-27T19:53:13.439Z,22.70
2019-04-27T19:59:32.976Z,22.70
2019-04-27T20:12:09.758Z,22.60
2019-04-27T20:23:18.634Z,22.60
2019-04-27T20:28:52.635Z,22.60
2019-04-27T20:34:18.057Z,22.60
2019-04-27T20:39:29.557Z,22.60
2019-04-27T20:44:41.423Z,22.60
2019-04-27T20:49:50.758Z,22.60
2019-04-27T20:55:01.894Z,22.60
2019-04-27T21:00:12.718Z,22.50
2019-04-27T21:05:47.314Z,22.50
2019-04-27T21:10:58.678Z,22.50
2019-04-27T21:16:06.995Z,22.60
2019-04-27T21:21:15.535Z,22.50
2019-04-27T21:26:23.552Z,22.50
2019-04-27T21:31:31.720Z,22.50
2019-04-27T21:36:40.877Z,22.50
2019-04-27T21:41:48.415Z,22.50
2019-04-27T21:46:56.279Z,22.50
2019-04-27T21:52:07.696Z,22.50
2019-04-27T21:57:15.818Z,22.50
2019-04-27T22:02:24.335Z,22.50
2019-04-27T22:07:32.416Z,22.40
2019-04-27T22:12:41.606Z,22.50
2019-04-27T22:30:56.197Z,22.40
2019-04-27T23:02:53.086Z,22.30
2019-04-27T23:07:58.864Z,22.40
2019-04-27T23:13:04.563Z,22.30
2019-04-27T23:18:11.032Z,22.30
2019-04-27T23:23:16.713Z,22.30
2019-04-27T23:28:22.736Z,22.30
2019-04-27T23:33:28.673Z,22.30
2019-04-27T23:38:33.764Z,22.30
2019-04-27T23:43:39.596Z,22.20
2019-04-27T23:48:45.508Z,22.20
2019-04-27T23:53:51.736Z,22.30
2019-04-27T23:58:57.607Z,22.20
